AUA995F LOWW-EKCH
Flight info
| Callsign | AUA995F |
|---|---|
| Flight time | N/A |
| Altitude | 38000 |
| Route | LANUX DCT VLM DCT HDO DCT BAKDO DCT KOSEB T298 MONAK |
| Aircraft | B738/M-SDE2E3FGHIRWXY/LB1 |
Departure
| Time | 2026-04-26 13:25 |
|---|---|
| Airport | Vienna International Airport (LOWW) |
Arrival
| Time | N/A |
|---|---|
| Airport | Copenhagen Kastrup Airport (EKCH) |
| Time | Latitude | Longitude | Altitude | Speed | Heading |
|---|---|---|---|---|---|
| 2026-04-26 13:18 | 48.11467 | 16.57018 | 606 ft | 0 kts | 206° |
| 2026-04-26 13:20 | 48.11460 | 16.57014 | 606 ft | 1 kts | 206° |
| 2026-04-26 13:20 | 48.11450 | 16.57006 | 606 ft | 2 kts | 206° |
| 2026-04-26 13:20 | 48.11433 | 16.56994 | 606 ft | 3 kts | 205° |
| 2026-04-26 13:21 | 48.11407 | 16.56999 | 606 ft | 3 kts | 160° |
| 2026-04-26 13:21 | 48.11380 | 16.57025 | 606 ft | 8 kts | 134° |
| 2026-04-26 13:21 | 48.11317 | 16.57055 | 606 ft | 9 kts | 172° |
| 2026-04-26 13:21 | 48.11269 | 16.57094 | 605 ft | 6 kts | 123° |
| 2026-04-26 13:22 | 48.11252 | 16.57149 | 605 ft | 4 kts | 111° |
| 2026-04-26 13:22 | 48.11237 | 16.57196 | 604 ft | 5 kts | 117° |
| 2026-04-26 13:22 | 48.11220 | 16.57246 | 604 ft | 7 kts | 118° |
| 2026-04-26 13:22 | 48.11193 | 16.57326 | 603 ft | 9 kts | 114° |
| 2026-04-26 13:23 | 48.11166 | 16.57414 | 601 ft | 8 kts | 115° |
| 2026-04-26 13:23 | 48.11137 | 16.57490 | 600 ft | 9 kts | 127° |
| 2026-04-26 13:23 | 48.11084 | 16.57521 | 600 ft | 7 kts | 188° |
| 2026-04-26 13:23 | 48.11075 | 16.57518 | 600 ft | 0 kts | 195° |
| 2026-04-26 13:24 | 48.11052 | 16.57508 | 600 ft | 7 kts | 195° |
| 2026-04-26 13:24 | 48.10988 | 16.57460 | 601 ft | 11 kts | 215° |
| 2026-04-26 13:24 | 48.10968 | 16.57365 | 603 ft | 9 kts | 288° |
| 2026-04-26 13:24 | 48.11044 | 16.57134 | 605 ft | 58 kts | 297° |
| 2026-04-26 13:25 | 48.11343 | 16.56227 | 591 ft | 133 kts | 296° |
| 2026-04-26 13:25 | 48.11818 | 16.54711 | 690 ft | 181 kts | 298° |
| 2026-04-26 13:25 | 48.12418 | 16.52962 | 1148 ft | 200 kts | 303° |
| 2026-04-26 13:25 | 48.12841 | 16.51022 | 1525 ft | 197 kts | 271° |
| 2026-04-26 13:26 | 48.12309 | 16.49090 | 1968 ft | 218 kts | 236° |
| 2026-04-26 13:26 | 48.11395 | 16.47289 | 2404 ft | 216 kts | 251° |
| 2026-04-26 13:26 | 48.11197 | 16.45166 | 2828 ft | 204 kts | 289° |
| 2026-04-26 13:26 | 48.11765 | 16.43262 | 3295 ft | 200 kts | 298° |
| 2026-04-26 13:27 | 48.12193 | 16.41270 | 3713 ft | 205 kts | 286° |
| 2026-04-26 13:27 | 48.12434 | 16.39178 | 4134 ft | 205 kts | 283° |
| 2026-04-26 13:27 | 48.12649 | 16.37060 | 4561 ft | 204 kts | 283° |
| 2026-04-26 13:27 | 48.12867 | 16.34967 | 4984 ft | 204 kts | 283° |
| 2026-04-26 13:28 | 48.13085 | 16.32903 | 5421 ft | 205 kts | 283° |
| 2026-04-26 13:28 | 48.13313 | 16.30720 | 5885 ft | 227 kts | 282° |
| 2026-04-26 13:28 | 48.13575 | 16.28276 | 6344 ft | 240 kts | 282° |
| 2026-04-26 13:28 | 48.13825 | 16.25848 | 6860 ft | 241 kts | 282° |
| 2026-04-26 13:29 | 48.14113 | 16.23385 | 7387 ft | 242 kts | 288° |
| 2026-04-26 13:29 | 48.14810 | 16.21128 | 7903 ft | 240 kts | 308° |
| 2026-04-26 13:29 | 48.16025 | 16.19471 | 8432 ft | 240 kts | 326° |
| 2026-04-26 13:29 | 48.17506 | 16.18298 | 8971 ft | 242 kts | 332° |
| 2026-04-26 13:30 | 48.19018 | 16.17215 | 9489 ft | 242 kts | 331° |
| 2026-04-26 13:30 | 48.20525 | 16.16111 | 10005 ft | 243 kts | 331° |
| 2026-04-26 13:30 | 48.22052 | 16.14968 | 10550 ft | 246 kts | 331° |
| 2026-04-26 13:30 | 48.23607 | 16.13808 | 11045 ft | 264 kts | 331° |
| 2026-04-26 13:31 | 48.25333 | 16.12518 | 11472 ft | 291 kts | 332° |
| 2026-04-26 13:31 | 48.27209 | 16.11124 | 11900 ft | 314 kts | 332° |
| 2026-04-26 13:31 | 48.29199 | 16.09647 | 12309 ft | 318 kts | 332° |
| 2026-04-26 13:31 | 48.31178 | 16.08176 | 12717 ft | 320 kts | 332° |
| 2026-04-26 13:32 | 48.33175 | 16.06698 | 13140 ft | 321 kts | 332° |
| 2026-04-26 13:32 | 48.35184 | 16.05205 | 13556 ft | 324 kts | 332° |
| 2026-04-26 13:32 | 48.37204 | 16.03702 | 13969 ft | 326 kts | 332° |
| 2026-04-26 13:32 | 48.39240 | 16.02187 | 14391 ft | 328 kts | 332° |
| 2026-04-26 13:33 | 48.41288 | 16.00657 | 14804 ft | 331 kts | 333° |
| 2026-04-26 13:33 | 48.43343 | 15.99120 | 15217 ft | 334 kts | 332° |
| 2026-04-26 13:33 | 48.45419 | 15.97568 | 15650 ft | 335 kts | 333° |
| 2026-04-26 13:33 | 48.47502 | 15.96005 | 16076 ft | 336 kts | 333° |
| 2026-04-26 13:34 | 48.49597 | 15.94436 | 16498 ft | 339 kts | 333° |
| 2026-04-26 13:34 | 48.51723 | 15.92846 | 16919 ft | 342 kts | 333° |
| 2026-04-26 13:34 | 48.53852 | 15.91247 | 17344 ft | 344 kts | 333° |
| 2026-04-26 13:34 | 48.55274 | 15.90177 | 17623 ft | 345 kts | 333° |
| 2026-04-26 13:35 | 48.58131 | 15.87973 | 18167 ft | 347 kts | 331° |
| 2026-04-26 13:35 | 48.60231 | 15.86188 | 18596 ft | 350 kts | 330° |
| 2026-04-26 13:35 | 48.62341 | 15.84364 | 19025 ft | 353 kts | 330° |
| 2026-04-26 13:35 | 48.64490 | 15.82518 | 19462 ft | 357 kts | 330° |
| 2026-04-26 13:36 | 48.66649 | 15.80675 | 19892 ft | 358 kts | 330° |
| 2026-04-26 13:36 | 48.68816 | 15.78824 | 20328 ft | 361 kts | 330° |
| 2026-04-26 13:36 | 48.70994 | 15.76956 | 20757 ft | 363 kts | 330° |
| 2026-04-26 13:36 | 48.73198 | 15.75067 | 21194 ft | 366 kts | 330° |
| 2026-04-26 13:37 | 48.75417 | 15.73161 | 21614 ft | 369 kts | 330° |
| 2026-04-26 13:37 | 48.77647 | 15.71239 | 22038 ft | 372 kts | 330° |
| 2026-04-26 13:37 | 48.79897 | 15.69305 | 22466 ft | 375 kts | 330° |
| 2026-04-26 13:37 | 48.82187 | 15.67336 | 22901 ft | 378 kts | 329° |
| 2026-04-26 13:38 | 48.84471 | 15.65370 | 23333 ft | 380 kts | 329° |
| 2026-04-26 13:38 | 48.86765 | 15.63385 | 23764 ft | 381 kts | 329° |
| 2026-04-26 13:38 | 48.89093 | 15.61461 | 24190 ft | 386 kts | 333° |
| 2026-04-26 13:38 | 48.91547 | 15.59760 | 24624 ft | 390 kts | 335° |
| 2026-04-26 13:39 | 48.94034 | 15.58131 | 25059 ft | 392 kts | 335° |
| 2026-04-26 13:39 | 48.96542 | 15.56483 | 25504 ft | 395 kts | 335° |
| 2026-04-26 13:39 | 48.99063 | 15.54812 | 25948 ft | 399 kts | 335° |
| 2026-04-26 13:39 | 49.01613 | 15.53116 | 26399 ft | 402 kts | 335° |
| 2026-04-26 13:40 | 49.04174 | 15.51415 | 26850 ft | 404 kts | 335° |
| 2026-04-26 13:40 | 49.06750 | 15.49702 | 27297 ft | 407 kts | 335° |
| 2026-04-26 13:40 | 49.09355 | 15.47967 | 27751 ft | 412 kts | 335° |
| 2026-04-26 13:40 | 49.11964 | 15.46226 | 28197 ft | 415 kts | 335° |
| 2026-04-26 13:41 | 49.14619 | 15.44454 | 28650 ft | 418 kts | 335° |
| 2026-04-26 13:41 | 49.17287 | 15.42669 | 29101 ft | 421 kts | 334° |
| 2026-04-26 13:41 | 49.19964 | 15.40878 | 29550 ft | 424 kts | 334° |
| 2026-04-26 13:41 | 49.22699 | 15.39046 | 30008 ft | 428 kts | 334° |
| 2026-04-26 13:42 | 49.25417 | 15.37222 | 30462 ft | 431 kts | 334° |
| 2026-04-26 13:42 | 49.28161 | 15.35378 | 30916 ft | 435 kts | 334° |
| 2026-04-26 13:42 | 49.30930 | 15.33510 | 31371 ft | 439 kts | 334° |
| 2026-04-26 13:42 | 49.33698 | 15.31643 | 31820 ft | 442 kts | 334° |
| 2026-04-26 13:43 | 49.36548 | 15.29726 | 32278 ft | 445 kts | 334° |
| 2026-04-26 13:43 | 49.39365 | 15.27828 | 32731 ft | 448 kts | 334° |
| 2026-04-26 13:43 | 49.42235 | 15.25894 | 33190 ft | 451 kts | 334° |
| 2026-04-26 13:43 | 49.45084 | 15.23967 | 33644 ft | 453 kts | 333° |
| 2026-04-26 13:44 | 49.47956 | 15.22022 | 34103 ft | 455 kts | 333° |
| 2026-04-26 13:44 | 49.50838 | 15.20069 | 34614 ft | 456 kts | 333° |
| 2026-04-26 13:44 | 49.53755 | 15.18080 | 34817 ft | 463 kts | 333° |
| 2026-04-26 13:45 | 49.59700 | 15.14021 | 34820 ft | 468 kts | 333° |
| 2026-04-26 13:45 | 49.65615 | 15.09982 | 34828 ft | 463 kts | 333° |
| 2026-04-26 13:46 | 49.71448 | 15.06020 | 35072 ft | 457 kts | 335° |
| 2026-04-26 13:46 | 49.74384 | 15.04315 | 35664 ft | 439 kts | 338° |
| 2026-04-26 13:46 | 49.77180 | 15.02813 | 36247 ft | 421 kts | 338° |
| 2026-04-26 13:46 | 49.79897 | 15.01347 | 36846 ft | 414 kts | 338° |
| 2026-04-26 13:47 | 49.82589 | 14.99870 | 37443 ft | 411 kts | 337° |
| 2026-04-26 13:47 | 49.85292 | 14.98378 | 38051 ft | 408 kts | 337° |
| 2026-04-26 13:47 | 49.87925 | 14.96912 | 38655 ft | 403 kts | 337° |
| 2026-04-26 13:47 | 49.90531 | 14.95459 | 39255 ft | 398 kts | 337° |
| 2026-04-26 13:48 | 49.93170 | 14.93987 | 39508 ft | 401 kts | 337° |
| 2026-04-26 13:48 | 49.98494 | 14.91002 | 39532 ft | 415 kts | 337° |
| 2026-04-26 13:49 | 50.03994 | 14.87910 | 39528 ft | 419 kts | 337° |
| 2026-04-26 13:49 | 50.09402 | 14.84860 | 39536 ft | 410 kts | 337° |
| 2026-04-26 13:50 | 50.14813 | 14.81800 | 39422 ft | 416 kts | 337° |
| 2026-04-26 13:50 | 50.17514 | 14.80267 | 39304 ft | 418 kts | 337° |
| 2026-04-26 13:50 | 50.20246 | 14.78725 | 39177 ft | 418 kts | 337° |
| 2026-04-26 13:50 | 50.22961 | 14.77192 | 39055 ft | 415 kts | 337° |
| 2026-04-26 13:51 | 50.25660 | 14.75663 | 38934 ft | 413 kts | 337° |
| 2026-04-26 13:51 | 50.28365 | 14.74127 | 38811 ft | 412 kts | 337° |
| 2026-04-26 13:51 | 50.31046 | 14.72595 | 38691 ft | 413 kts | 337° |
| 2026-04-26 13:51 | 50.33733 | 14.71061 | 38574 ft | 415 kts | 337° |
| 2026-04-26 13:52 | 50.36457 | 14.69504 | 38450 ft | 416 kts | 337° |
| 2026-04-26 13:52 | 50.39148 | 14.67969 | 38338 ft | 415 kts | 337° |
| 2026-04-26 13:52 | 50.41840 | 14.66427 | 38222 ft | 414 kts | 337° |
| 2026-04-26 13:52 | 50.44530 | 14.64887 | 38605 ft | 405 kts | 337° |
| 2026-04-26 13:53 | 50.47125 | 14.63398 | 38972 ft | 405 kts | 337° |
| 2026-04-26 13:53 | 50.52510 | 14.60291 | 38920 ft | 419 kts | 337° |
| 2026-04-26 13:54 | 50.57977 | 14.57145 | 38889 ft | 415 kts | 337° |
| 2026-04-26 13:54 | 50.63322 | 14.54060 | 38855 ft | 411 kts | 337° |
| 2026-04-26 13:55 | 50.70515 | 14.49887 | 38818 ft | 415 kts | 337° |
| 2026-04-26 13:56 | 50.79516 | 14.44665 | 38766 ft | 414 kts | 337° |
| 2026-04-26 13:56 | 50.84897 | 14.41527 | 38740 ft | 412 kts | 337° |
| 2026-04-26 13:57 | 50.90248 | 14.38388 | 38705 ft | 412 kts | 337° |
| 2026-04-26 13:57 | 50.95734 | 14.35680 | 38683 ft | 415 kts | 342° |
| 2026-04-26 13:58 | 51.01301 | 14.33433 | 38651 ft | 415 kts | 342° |
| 2026-04-26 13:58 | 51.06880 | 14.31157 | 38613 ft | 414 kts | 342° |
| 2026-04-26 13:59 | 51.12437 | 14.28879 | 38581 ft | 413 kts | 342° |
| 2026-04-26 13:59 | 51.17977 | 14.26600 | 38556 ft | 414 kts | 342° |
| 2026-04-26 14:00 | 51.29081 | 14.22032 | 38491 ft | 412 kts | 342° |
| 2026-04-26 14:01 | 51.34618 | 14.19751 | 38463 ft | 413 kts | 341° |
| 2026-04-26 14:01 | 51.40158 | 14.17454 | 38453 ft | 413 kts | 341° |
| 2026-04-26 14:02 | 51.45719 | 14.15134 | 38458 ft | 414 kts | 341° |
| 2026-04-26 14:02 | 51.51266 | 14.12822 | 38452 ft | 414 kts | 341° |
| 2026-04-26 14:03 | 51.56845 | 14.10490 | 38210 ft | 413 kts | 342° |
| 2026-04-26 14:03 | 51.62356 | 14.08183 | 38206 ft | 412 kts | 341° |
| 2026-04-26 14:04 | 51.67891 | 14.05865 | 38208 ft | 413 kts | 341° |
| 2026-04-26 14:04 | 51.73430 | 14.03537 | 38208 ft | 414 kts | 341° |
| 2026-04-26 14:05 | 51.79005 | 14.01185 | 38207 ft | 414 kts | 341° |
| 2026-04-26 14:05 | 51.84563 | 13.98833 | 38200 ft | 413 kts | 341° |
| 2026-04-26 14:06 | 51.90081 | 13.96495 | 38203 ft | 412 kts | 341° |
| 2026-04-26 14:06 | 51.95627 | 13.94142 | 38198 ft | 412 kts | 341° |
| 2026-04-26 14:07 | 52.01143 | 13.91783 | 38197 ft | 412 kts | 341° |
| 2026-04-26 14:07 | 52.06673 | 13.89423 | 38194 ft | 412 kts | 341° |
| 2026-04-26 14:08 | 52.12194 | 13.87057 | 38197 ft | 413 kts | 341° |
| 2026-04-26 14:08 | 52.17755 | 13.84670 | 38190 ft | 413 kts | 341° |
| 2026-04-26 14:09 | 52.23268 | 13.82297 | 38189 ft | 410 kts | 341° |
| 2026-04-26 14:09 | 52.28736 | 13.79940 | 38185 ft | 410 kts | 341° |
| 2026-04-26 14:10 | 52.34259 | 13.77550 | 38186 ft | 411 kts | 341° |
| 2026-04-26 14:10 | 52.39781 | 13.75158 | 38184 ft | 411 kts | 341° |
| 2026-04-26 14:11 | 52.48027 | 13.71569 | 38184 ft | 409 kts | 341° |
| 2026-04-26 14:11 | 52.53488 | 13.69180 | 38179 ft | 409 kts | 341° |
| 2026-04-26 14:12 | 52.58976 | 13.66776 | 38182 ft | 410 kts | 341° |
| 2026-04-26 14:12 | 52.64509 | 13.64349 | 38183 ft | 412 kts | 341° |
| 2026-04-26 14:13 | 52.72751 | 13.60722 | 38179 ft | 408 kts | 341° |
| 2026-04-26 14:14 | 52.78211 | 13.58304 | 38186 ft | 408 kts | 341° |
| 2026-04-26 14:14 | 52.83688 | 13.55879 | 38179 ft | 410 kts | 341° |
| 2026-04-26 14:15 | 52.89197 | 13.53431 | 38181 ft | 411 kts | 341° |
| 2026-04-26 14:15 | 52.94682 | 13.50993 | 38177 ft | 410 kts | 341° |
| 2026-04-26 14:16 | 53.00159 | 13.48548 | 38178 ft | 408 kts | 341° |
| 2026-04-26 14:16 | 53.05647 | 13.46086 | 38186 ft | 409 kts | 341° |
| 2026-04-26 14:17 | 53.11116 | 13.43636 | 38187 ft | 409 kts | 341° |
| 2026-04-26 14:17 | 53.16596 | 13.41179 | 38180 ft | 409 kts | 341° |
| 2026-04-26 14:18 | 53.22064 | 13.38700 | 38177 ft | 408 kts | 341° |
| 2026-04-26 14:18 | 53.27524 | 13.36231 | 38179 ft | 408 kts | 341° |
| 2026-04-26 14:19 | 53.32997 | 13.33754 | 38182 ft | 409 kts | 340° |
| 2026-04-26 14:19 | 53.35705 | 13.32521 | 38050 ft | 406 kts | 340° |
| 2026-04-26 14:19 | 53.38433 | 13.31283 | 37619 ft | 403 kts | 340° |
| 2026-04-26 14:19 | 53.41116 | 13.30069 | 37192 ft | 399 kts | 340° |
| 2026-04-26 14:20 | 53.43762 | 13.28873 | 36794 ft | 396 kts | 340° |
| 2026-04-26 14:20 | 53.46384 | 13.27676 | 36449 ft | 392 kts | 340° |
| 2026-04-26 14:20 | 53.49028 | 13.26470 | 36132 ft | 391 kts | 339° |
| 2026-04-26 14:20 | 53.51627 | 13.25275 | 35825 ft | 396 kts | 339° |
| 2026-04-26 14:21 | 53.54295 | 13.24046 | 35508 ft | 399 kts | 339° |
| 2026-04-26 14:21 | 53.56986 | 13.22811 | 35188 ft | 400 kts | 339° |
| 2026-04-26 14:21 | 53.59661 | 13.21580 | 34870 ft | 399 kts | 339° |
| 2026-04-26 14:21 | 53.62310 | 13.20365 | 34550 ft | 397 kts | 339° |
| 2026-04-26 14:22 | 53.64949 | 13.19151 | 34213 ft | 395 kts | 339° |
| 2026-04-26 14:22 | 53.67591 | 13.17932 | 33874 ft | 395 kts | 339° |
| 2026-04-26 14:22 | 53.70231 | 13.16702 | 33537 ft | 397 kts | 339° |
| 2026-04-26 14:22 | 53.72898 | 13.15451 | 33197 ft | 398 kts | 339° |
| 2026-04-26 14:23 | 53.75560 | 13.14213 | 32859 ft | 399 kts | 339° |
| 2026-04-26 14:23 | 53.78224 | 13.12978 | 32522 ft | 399 kts | 340° |
| 2026-04-26 14:23 | 53.80888 | 13.11746 | 32185 ft | 398 kts | 339° |
| 2026-04-26 14:23 | 53.83516 | 13.10518 | 31851 ft | 398 kts | 339° |
| 2026-04-26 14:24 | 53.86180 | 13.09275 | 31513 ft | 398 kts | 340° |